Clever, Missouri
Current Conditions -  °F | °C
As of 1:52 AM on Wednesday 22 Oct 2014 (Local Time) from KSGF Reporting Station
Clear Clear  
Wind Chill: 54°   Ceiling: Unl
Heat Index: 54°   Visibility: 10mi
Dew Point: 45°   Wind: 12mph
Humidity: 72%   Direction: 130°SE
Pressure: 30.14"   Gusts: NA
Location:  37.03°N, 93.47°W
Report Text: KSGF 220652Z 13010KT 10SM CLR 12/07 A3014 RMK AO2 SLP199 T01220072
Loading
Personal Weather Stations






























Interactive Weather Map
Tropical Storm Tracking
New forecast layout! Learn more

10-Day Weather Forecast

Advertisements
Track Severe Weather on mobile